This is the latest recevied weather packets stored in our database for station/object KC0CAU. If no packets are shown the sender has not sent any weather packets the latest 10 day(s).
| Time | Temp. | Humidity | Pressure | Rain* | Wind** | Luminosity | Snow |
|---|---|---|---|---|---|---|---|
| 1778162413 | 5° C | 62% | 1015.1 hPa | 0 mm | - | - | - |
| 1778161516 | 3.89° C | 61% | 1015 hPa | 0 mm | - | - | - |
| 1778160607 | 3.33° C | 66% | 1014.9 hPa | 0 mm | - | - | - |
| 1778159704 | 2.22° C | 68% | 1014.8 hPa | 0 mm | - | - | - |
| 1778158802 | 1.67° C | 68% | 1014.8 hPa | 0 mm | - | - | - |
| 1778157960 | 1.67° C | 66% | 1014.7 hPa | 0 mm | - | - | - |
| 1778157060 | 0.56° C | 70% | 1014.6 hPa | 0 mm | - | - | - |
| 1778156164 | -0.56° C | 74% | 1014.5 hPa | 0 mm | - | - | - |
| 1778155264 | -1.67° C | 76% | 1014.4 hPa | 0 mm | - | - | - |
| 1778154370 | -2.22° C | 76% | 1014.4 hPa | 0 mm | - | - | - |
| 1778153457 | -2.22° C | 76% | 1014.3 hPa | 0 mm | - | - | - |
| 1778152557 | -2.22° C | 75% | 1014.4 hPa | 0 mm | - | - | - |
| 1778151662 | -2.22° C | 75% | 1014.2 hPa | 0 mm | - | - | - |
| 1778150753 | -2.22° C | 74% | 1014.4 hPa | 0 mm | - | - | - |
| 1778149852 | -1.67° C | 74% | 1014.3 hPa | 0 mm | - | - | - |
| 1778148959 | -1.67° C | 74% | 1014.3 hPa | 0 mm | - | - | - |
| 1778148051 | -2.22° C | 74% | 1014.4 hPa | 0 mm | - | - | - |
| 1778147155 | -1.67° C | 73% | 1014.4 hPa | 0 mm | - | - | - |
| 1778146247 | -1.67° C | 72% | 1014.4 hPa | 0 mm | - | - | - |
| 1778145346 | -1.11° C | 71% | 1014.5 hPa | 0 mm | - | - | - |
| 1778144446 | -1.67° C | 71% | 1014.4 hPa | 0 mm | - | - | - |
| 1778143542 | -1.11° C | 70% | 1014.5 hPa | 0 mm | - | - | - |
| 1778142641 | -1.11° C | 70% | 1014.4 hPa | 0 mm | - | - | - |
| 1778141745 | -0.56° C | 69% | 1014.3 hPa | 0 mm | - | - | - |
| 1778140838 | -0.56° C | 68% | 1014.3 hPa | 0 mm | - | - | - |
* Rain latest hour (hover to see other rain measurements)
** Current wind speed in m/s (hover to see current wind gust speed)